Time;durP1;ratioP1;P1;durP2;ratioP2;P2;SDS_P1;SDS_P2;PMS_P1;PMS_P2;Temp;Humidity;BMP_temperature;BMP_pressure;BME280_temperature;BME280_humidity;BME280_pressure;Samples;Min_cycle;Max_cycle;Signal;HPM_P1;HPM_P2
2022/03/28 00:00:11;;;;;;;18.93;3.03;;;;;;;20.13;35.83;102879.72;5033683;28;20017;-72
2022/03/28 00:02:40;;;;;;;20.83;3.20;;;;;;;19.81;36.43;102862.56;5040551;28;20404;-72
2022/03/28 00:05:07;;;;;;;8.77;2.10;;;;;;;19.87;35.89;102862.47;5029371;28;20025;-72
2022/03/28 00:07:32;;;;;;;15.87;3.00;;;;;;;19.75;36.42;102857.34;5029439;28;20053;-72
2022/03/28 00:09:58;;;;;;;19.97;3.60;;;;;;;19.94;35.96;102853.50;5030685;28;20065;-72
2022/03/28 00:12:24;;;;;;;14.60;2.60;;;;;;;19.88;36.54;102852.72;5029770;28;20293;-72
2022/03/28 00:14:49;;;;;;;12.47;2.17;;;;;;;19.70;36.23;102849.47;5014111;28;20061;-72
2022/03/28 00:17:14;;;;;;;15.60;2.77;;;;;;;19.67;36.48;102852.16;5009641;28;20022;-71
2022/03/28 00:19:40;;;;;;;13.60;3.03;;;;;;;19.42;36.12;102849.88;5017440;28;20539;-72
2022/03/28 00:22:05;;;;;;;24.83;2.87;;;;;;;19.93;35.66;102850.88;5030283;28;20041;-72
2022/03/28 00:24:30;;;;;;;9.97;3.30;;;;;;;20.11;35.13;102845.25;5029567;28;20378;-72
2022/03/28 00:26:56;;;;;;;12.80;2.90;;;;;;;20.10;35.64;102842.59;5030692;28;20104;-72
2022/03/28 00:29:22;;;;;;;19.10;3.27;;;;;;;19.92;35.77;102844.69;5029113;28;20522;-72
2022/03/28 00:31:47;;;;;;;16.70;4.00;;;;;;;20.10;35.45;102838.19;5029784;28;20025;-72
2022/03/28 00:34:15;;;;;;;22.27;2.60;;;;;;;19.04;36.81;102838.09;5029740;28;20021;-72
2022/03/28 00:36:41;;;;;;;12.50;2.47;;;;;;;19.23;37.10;102830.72;5029228;28;20029;-72
2022/03/28 00:39:07;;;;;;;14.23;2.63;;;;;;;19.75;35.57;102841.41;5028803;28;20021;-72
2022/03/28 00:41:32;;;;;;;14.80;2.00;;;;;;;19.97;35.17;102844.59;5030763;28;20021;-72
2022/03/28 00:43:59;;;;;;;13.03;2.33;;;;;;;19.98;35.40;102841.06;5030621;28;20102;-72
2022/03/28 00:46:25;;;;;;;17.60;3.37;;;;;;;18.58;37.31;102828.06;5035786;28;20021;-72
2022/03/28 00:48:52;;;;;;;15.60;2.53;;;;;;;19.19;36.54;102825.50;5027828;28;20033;-72
2022/03/28 00:51:18;;;;;;;18.20;2.60;;;;;;;19.69;35.54;102814.97;5028708;28;20029;-72
2022/03/28 00:53:44;;;;;;;23.37;4.70;;;;;;;19.79;35.68;102825.41;5029291;28;20034;-72
2022/03/28 00:56:11;;;;;;;16.20;3.30;;;;;;;19.36;36.20;102818.19;5028506;28;20029;-72
2022/03/28 00:58:36;;;;;;;17.13;3.07;;;;;;;19.78;35.29;102821.03;5031056;28;20561;-72
2022/03/28 01:01:02;;;;;;;19.50;3.97;;;;;;;19.98;34.95;102811.88;5030138;28;20037;-72
2022/03/28 01:03:27;;;;;;;16.53;2.93;;;;;;;19.08;36.31;102813.28;5028329;28;20040;-72
2022/03/28 01:05:53;;;;;;;19.70;3.37;;;;;;;19.57;35.63;102810.78;5028657;28;20029;-72
2022/03/28 01:08:18;;;;;;;11.27;2.50;;;;;;;19.13;36.88;102811.44;5028939;28;20535;-72
2022/03/28 01:10:47;;;;;;;13.00;2.73;;;;;;;19.02;36.88;102797.47;5029862;28;20022;-72
2022/03/28 01:13:13;;;;;;;8.93;2.50;;;;;;;19.65;35.49;102790.31;5028801;28;20037;-72
2022/03/28 01:15:38;;;;;;;15.13;3.17;;;;;;;19.65;35.60;102790.31;5028534;28;20119;-72
2022/03/28 01:18:08;;;;;;;16.37;3.33;;;;;;;19.60;35.54;102789.50;5027963;28;20036;-72
2022/03/28 01:20:37;;;;;;;13.93;3.23;;;;;;;19.01;36.86;102785.09;5030384;28;20044;-72
2022/03/28 01:23:03;;;;;;;16.00;2.60;;;;;;;19.45;36.18;102780.03;5029837;28;20025;-72
2022/03/28 01:25:29;;;;;;;17.07;2.90;;;;;;;19.13;36.54;102784.06;5028109;28;20020;-72
2022/03/28 01:27:55;;;;;;;16.37;4.60;;;;;;;19.19;36.66;102786.59;5029082;28;20036;-72
2022/03/28 01:30:22;;;;;;;19.30;5.00;;;;;;;18.86;36.81;102785.31;5028728;28;20026;-72
2022/03/28 01:32:49;;;;;;;10.83;2.37;;;;;;;19.07;37.08;102785.03;5029443;28;20377;-72
2022/03/28 01:35:33;;;;;;;16.80;3.90;;;;;;;19.15;36.63;102777.84;5028572;28;20022;-72
2022/03/28 01:37:59;;;;;;;14.83;3.00;;;;;;;18.44;38.15;102786.72;5029056;28;20115;-72
2022/03/28 01:40:25;;;;;;;17.97;3.47;;;;;;;18.83;37.43;102780.91;5028849;28;20026;-72
2022/03/28 01:42:50;;;;;;;15.13;2.53;;;;;;;18.91;36.52;102770.25;5028942;28;20097;-72
2022/03/28 01:45:18;;;;;;;15.83;2.63;;;;;;;18.46;37.72;102777.00;5027921;28;20029;-72
2022/03/28 01:47:44;;;;;;;23.17;3.87;;;;;;;18.66;37.32;102767.91;5028958;28;20031;-72
2022/03/28 01:50:09;;;;;;;18.47;3.00;;;;;;;18.26;37.75;102769.28;5028076;28;20411;-72
2022/03/28 01:52:35;;;;;;;12.93;3.23;;;;;;;18.70;37.16;102764.34;5028423;28;20022;-72
2022/03/28 01:55:00;;;;;;;17.80;2.67;;;;;;;18.19;38.01;102761.44;5028777;28;20048;-72
2022/03/28 01:57:25;;;;;;;19.10;3.63;;;;;;;18.46;37.75;102754.94;5028683;28;20048;-72
2022/03/28 01:59:51;;;;;;;17.00;3.77;;;;;;;18.33;37.83;102759.50;5027602;28;20075;-72
2022/03/28 02:02:17;;;;;;;14.70;2.80;;;;;;;18.51;37.48;102752.25;5064768;28;20500;-72
2022/03/28 02:04:42;;;;;;;17.80;3.80;;;;;;;18.12;38.17;102756.22;5032514;28;20112;-72
2022/03/28 02:07:07;;;;;;;15.80;3.70;;;;;;;18.93;36.80;102736.66;5044744;28;20033;-72
2022/03/28 02:09:33;;;;;;;16.30;4.27;;;;;;;18.10;38.48;102744.75;5048524;28;20037;-72
2022/03/28 02:11:58;;;;;;;14.73;3.17;;;;;;;19.05;36.85;102741.75;5031537;28;20515;-72
2022/03/28 02:14:23;;;;;;;19.13;4.20;;;;;;;17.90;38.51;102750.25;5032882;28;20463;-72
2022/03/28 02:16:49;;;;;;;30.87;3.57;;;;;;;18.62;37.25;102739.72;5032228;28;20025;-72
2022/03/28 02:19:14;;;;;;;14.07;3.77;;;;;;;19.01;36.45;102736.56;5031505;28;20622;-73
2022/03/28 02:21:40;;;;;;;10.77;4.07;;;;;;;17.78;38.39;102740.66;5056845;28;20056;-72
2022/03/28 02:24:05;;;;;;;18.30;3.13;;;;;;;18.37;37.98;102739.16;5034634;28;20036;-72
2022/03/28 02:26:31;;;;;;;20.33;3.50;;;;;;;17.64;39.64;102739.94;5040772;28;20113;-72
2022/03/28 02:28:56;;;;;;;24.90;3.70;;;;;;;18.90;36.69;102728.75;5031142;28;20650;-72
2022/03/28 02:31:22;;;;;;;19.90;3.13;;;;;;;18.62;36.96;102734.44;5032375;28;20434;-72
2022/03/28 02:33:47;;;;;;;19.93;2.70;;;;;;;18.45;37.23;102727.59;5031871;28;20071;-72
2022/03/28 02:36:12;;;;;;;24.10;3.50;;;;;;;17.50;39.35;102736.53;5032394;28;20017;-72
2022/03/28 02:38:38;;;;;;;14.97;2.57;;;;;;;17.67;38.58;102726.69;5031847;28;20434;-72
2022/03/28 02:41:03;;;;;;;22.13;4.37;;;;;;;18.11;38.19;102717.41;5032397;28;20105;-72
2022/03/28 02:43:29;;;;;;;9.43;2.97;;;;;;;18.03;38.11;102713.97;5030440;28;20049;-72
2022/03/28 02:45:54;;;;;;;14.60;2.77;;;;;;;18.51;36.74;102715.16;5031424;28;20045;-72
2022/03/28 02:48:20;;;;;;;15.87;3.53;;;;;;;18.36;37.44;102706.50;5030263;28;20056;-72
2022/03/28 02:50:45;;;;;;;15.83;3.43;;;;;;;18.50;37.18;102708.97;5032824;28;20079;-72
2022/03/28 02:53:11;;;;;;;11.43;3.33;;;;;;;18.62;36.83;102695.56;5031000;28;20065;-72
2022/03/28 02:55:37;;;;;;;14.73;3.17;;;;;;;17.06;40.11;102706.94;5040630;28;20112;-71
2022/03/28 02:58:03;;;;;;;17.70;4.40;;;;;;;17.92;38.35;102700.00;5031042;28;20549;-72
2022/03/28 03:00:28;;;;;;;22.77;4.20;;;;;;;17.88;38.48;102698.25;5032122;28;20036;-71
2022/03/28 03:02:53;;;;;;;19.27;3.90;;;;;;;18.13;37.64;102688.28;5031757;28;20040;-72
2022/03/28 03:05:19;;;;;;;19.83;4.20;;;;;;;18.04;38.07;102684.00;5030676;28;20025;-72
2022/03/28 03:07:44;;;;;;;17.03;4.40;;;;;;;18.22;37.05;102687.31;5032713;28;20029;-72
2022/03/28 03:10:10;;;;;;;24.17;5.13;;;;;;;18.17;38.29;102678.53;5030596;28;20083;-72
2022/03/28 03:12:35;;;;;;;23.33;5.23;;;;;;;18.36;37.22;102680.03;5031762;28;20058;-72
2022/03/28 03:15:01;;;;;;;22.00;4.13;;;;;;;18.50;36.62;102671.91;5014171;28;20423;-72
2022/03/28 03:17:26;;;;;;;14.43;3.33;;;;;;;17.79;37.97;102676.31;5029889;28;20087;-72
2022/03/28 03:19:52;;;;;;;20.50;3.33;;;;;;;17.91;37.79;102677.03;5031905;28;20112;-72
2022/03/28 03:22:18;;;;;;;20.63;3.77;;;;;;;18.05;37.64;102669.88;5042222;28;20372;-72
2022/03/28 03:24:44;;;;;;;13.73;3.37;;;;;;;17.37;39.49;102675.84;5050230;28;20503;-72
2022/03/28 03:27:10;;;;;;;12.47;3.00;;;;;;;17.45;38.92;102674.00;5034527;28;20048;-72
2022/03/28 03:29:37;;;;;;;24.60;5.23;;;;;;;17.35;39.46;102677.63;5030277;28;20129;-72
2022/03/28 03:32:06;;;;;;;15.43;4.00;;;;;;;17.22;40.17;102681.28;5029847;28;20104;-72
2022/03/28 03:34:33;;;;;;;12.93;3.73;;;;;;;18.15;37.83;102670.63;5032145;28;20034;-72
2022/03/28 03:36:58;;;;;;;19.87;4.40;;;;;;;17.13;39.73;102675.16;5029948;28;20033;-72
2022/03/28 03:39:25;;;;;;;18.13;3.43;;;;;;;17.68;38.11;102658.78;5029558;28;20082;-72
2022/03/28 03:41:54;;;;;;;18.67;4.30;;;;;;;17.62;38.36;102655.31;5049125;28;20075;-72
2022/03/28 03:44:20;;;;;;;12.63;5.17;;;;;;;17.46;38.77;102659.91;5051278;28;20033;-72
2022/03/28 03:46:45;;;;;;;17.60;4.63;;;;;;;17.42;39.29;102660.81;5050146;28;20025;-72
2022/03/28 03:49:11;;;;;;;19.27;4.20;;;;;;;17.32;39.72;102660.91;5037798;28;20216;-72
2022/03/28 03:51:37;;;;;;;17.37;5.00;;;;;;;17.36;39.34;102663.50;5032267;28;20055;-72
2022/03/28 03:54:03;;;;;;;19.53;4.47;;;;;;;17.95;37.52;102653.22;5029989;28;20389;-72
2022/03/28 03:56:28;;;;;;;13.00;4.43;;;;;;;18.17;37.14;102650.28;5030027;28;20481;-72
2022/03/28 03:58:55;;;;;;;15.30;4.27;;;;;;;17.62;38.72;102643.88;5030648;28;20021;-72
2022/03/28 04:01:22;;;;;;;14.83;4.17;;;;;;;17.87;38.42;102638.31;5029809;28;20120;-72
2022/03/28 04:03:47;;;;;;;16.67;4.77;;;;;;;17.11;38.79;102642.59;5010487;28;20100;-71
2022/03/28 04:06:13;;;;;;;15.67;4.00;;;;;;;17.75;37.61;102632.28;5009036;28;20029;-72
2022/03/28 04:08:38;;;;;;;19.03;4.50;;;;;;;18.01;37.41;102625.81;5023688;28;20032;-72
2022/03/28 04:11:07;;;;;;;18.83;4.97;;;;;;;18.09;37.08;102631.00;5037682;28;20033;-72
2022/03/28 04:13:34;;;;;;;18.47;4.30;;;;;;;17.80;37.77;102633.09;5029085;28;20488;-72
2022/03/28 04:16:00;;;;;;;18.37;4.70;;;;;;;17.29;38.63;102632.75;5031555;28;20021;-72
2022/03/28 04:18:27;;;;;;;14.50;3.57;;;;;;;17.56;38.43;102638.66;5030933;28;20025;-72
2022/03/28 04:20:52;;;;;;;16.73;4.50;;;;;;;17.30;38.71;102639.78;5030090;28;20080;-71
2022/03/28 04:23:19;;;;;;;15.93;4.43;;;;;;;17.44;38.47;102634.38;5029426;28;20060;-72
2022/03/28 04:25:44;;;;;;;16.53;4.80;;;;;;;17.09;39.19;102628.53;5029742;28;20032;-72
2022/03/28 04:28:10;;;;;;;15.77;4.63;;;;;;;17.51;38.25;102635.19;5029303;28;20481;-72
2022/03/28 04:30:36;;;;;;;16.30;5.33;;;;;;;17.43;37.72;102644.06;5029622;28;20477;-71
2022/03/28 04:33:03;;;;;;;10.97;4.20;;;;;;;17.51;37.78;102646.63;5028881;28;20374;-72
2022/03/28 04:35:29;;;;;;;19.80;6.17;;;;;;;17.35;38.21;102635.34;5030368;28;20033;-72
2022/03/28 04:37:55;;;;;;;23.17;5.73;;;;;;;17.80;37.27;102643.69;5029542;28;20384;-72
2022/03/28 04:40:20;;;;;;;13.50;4.30;;;;;;;17.62;37.64;102646.50;5028915;28;20021;-72
2022/03/28 04:42:46;;;;;;;18.13;4.50;;;;;;;17.97;37.43;102634.69;5029424;28;20025;-71
2022/03/28 04:45:13;;;;;;;21.63;6.53;;;;;;;17.66;37.81;102645.59;5029268;28;20033;-72
2022/03/28 04:47:39;;;;;;;29.13;8.33;;;;;;;16.88;39.69;102649.81;5028982;28;20060;-72
2022/03/28 04:50:05;;;;;;;25.27;7.70;;;;;;;17.59;37.32;102641.28;5028357;28;20378;-72
2022/03/28 04:52:31;;;;;;;15.73;6.10;;;;;;;17.43;38.03;102628.22;5013179;28;20041;-72
2022/03/28 04:54:57;;;;;;;16.17;6.20;;;;;;;17.66;37.46;102635.00;5028753;28;20036;-72
2022/03/28 04:57:22;;;;;;;20.83;6.13;;;;;;;17.29;38.49;102635.41;5047833;28;20025;-72
2022/03/28 04:59:48;;;;;;;17.30;5.50;;;;;;;17.67;37.42;102626.19;5036027;28;20040;-72
2022/03/28 05:02:14;;;;;;;15.77;4.80;;;;;;;17.11;39.04;102621.44;5028591;28;20108;-72
2022/03/28 05:04:40;;;;;;;16.20;5.40;;;;;;;17.00;39.30;102612.75;5029611;28;20401;-72
2022/03/28 05:07:06;;;;;;;20.33;5.80;;;;;;;16.42;39.94;102603.50;5029002;28;20025;-72
2022/03/28 05:09:31;;;;;;;16.77;5.10;;;;;;;16.20;40.68;102602.75;5028265;28;20798;-72
2022/03/28 05:11:57;;;;;;;12.73;4.47;;;;;;;16.20;40.86;102594.81;5045122;28;20041;-72
2022/03/28 05:14:23;;;;;;;19.40;5.63;;;;;;;17.13;39.08;102609.13;5048620;28;20503;-72
2022/03/28 05:16:51;;;;;;;17.10;5.00;;;;;;;17.44;38.11;102608.78;5048936;28;20074;-72
2022/03/28 05:19:17;;;;;;;16.40;6.60;;;;;;;17.39;38.29;102608.00;5042997;28;20033;-72
2022/03/28 05:21:42;;;;;;;17.20;6.23;;;;;;;16.52;39.53;102615.72;5028462;28;20041;-72
2022/03/28 05:24:08;;;;;;;14.70;5.00;;;;;;;17.39;38.68;102617.66;5028143;28;20033;-72
2022/03/28 05:26:33;;;;;;;20.50;6.57;;;;;;;17.36;37.85;102615.06;5032336;28;20028;-72
2022/03/28 05:28:59;;;;;;;16.47;6.27;;;;;;;16.36;40.17;102607.06;5026411;28;20037;-72
2022/03/28 05:31:24;;;;;;;18.67;6.17;;;;;;;16.07;40.85;102602.81;5027280;28;20029;-72
2022/03/28 05:33:50;;;;;;;13.97;5.63;;;;;;;16.81;39.70;102612.00;5034481;28;20466;-72
2022/03/28 05:36:16;;;;;;;17.53;5.13;;;;;;;16.61;40.77;102613.03;5030267;28;20389;-72
2022/03/28 05:38:42;;;;;;;18.10;6.27;;;;;;;16.68;40.00;102610.34;5033637;28;20420;-72
2022/03/28 05:41:08;;;;;;;13.40;5.73;;;;;;;16.72;39.97;102607.69;5033144;28;20029;-72
2022/03/28 05:43:35;;;;;;;19.47;6.50;;;;;;;16.95;39.54;102614.56;5031873;28;20057;-72
2022/03/28 05:46:02;;;;;;;15.97;6.70;;;;;;;17.23;39.11;102603.75;5032711;28;20124;-72
2022/03/28 05:48:28;;;;;;;24.70;6.97;;;;;;;16.34;40.95;102600.88;5032241;28;20163;-72
2022/03/28 05:50:53;;;;;;;19.53;5.80;;;;;;;16.17;40.96;102601.00;5033848;28;20498;-72
2022/03/28 05:53:19;;;;;;;15.03;6.53;;;;;;;16.73;39.73;102588.31;5031487;28;20033;-72
2022/03/28 05:55:44;;;;;;;23.63;8.43;;;;;;;17.06;39.23;102591.59;5033343;28;20034;-72
2022/03/28 05:58:11;;;;;;;20.03;7.60;;;;;;;17.15;38.76;102585.31;5030157;28;20030;-72
2022/03/28 06:00:37;;;;;;;14.63;6.37;;;;;;;16.70;39.80;102583.03;5032758;28;20179;-72
2022/03/28 06:03:06;;;;;;;21.47;5.80;;;;;;;17.10;39.47;102592.41;5033391;28;20036;-72
2022/03/28 06:05:32;;;;;;;18.93;7.23;;;;;;;16.83;39.64;102582.94;5031211;28;20084;-72
2022/03/28 06:07:58;;;;;;;14.93;6.30;;;;;;;16.37;40.75;102590.31;5032355;28;20502;-72
2022/03/28 06:10:23;;;;;;;19.23;7.23;;;;;;;17.13;39.22;102593.28;5033131;28;20029;-72
2022/03/28 06:12:49;;;;;;;18.97;6.83;;;;;;;16.09;41.13;102590.47;5031447;28;20033;-72
2022/03/28 06:15:15;;;;;;;17.60;6.47;;;;;;;16.28;40.88;102593.03;5030832;28;20045;-72
2022/03/28 06:17:40;;;;;;;13.17;5.93;;;;;;;16.59;40.23;102598.09;5033008;28;20029;-72
2022/03/28 06:20:06;;;;;;;13.87;6.67;;;;;;;16.80;39.79;102589.09;5032468;28;20032;-71
2022/03/28 06:22:32;;;;;;;19.00;6.70;;;;;;;16.97;39.61;102586.38;5031962;28;20119;-72
2022/03/28 06:24:57;;;;;;;17.07;7.07;;;;;;;16.50;40.97;102591.13;5032592;28;20102;-72
2022/03/28 06:27:25;;;;;;;19.40;7.10;;;;;;;16.37;40.52;102590.31;5031010;28;20366;-72
2022/03/28 06:29:51;;;;;;;19.60;7.60;;;;;;;16.99;40.04;102584.59;5033583;28;20128;-72
2022/03/28 06:32:17;;;;;;;17.53;6.80;;;;;;;17.20;39.28;102578.22;5032381;28;20022;-72
2022/03/28 06:34:42;;;;;;;14.27;6.97;;;;;;;17.08;39.12;102589.78;5030711;28;20029;-72
2022/03/28 06:37:07;;;;;;;16.17;6.63;;;;;;;17.04;39.40;102588.06;5019256;28;20076;-72
2022/03/28 06:39:34;;;;;;;18.17;6.90;;;;;;;17.74;38.88;102580.25;5032949;28;20029;-72
2022/03/28 06:42:00;;;;;;;16.03;7.40;;;;;;;17.57;38.16;102577.84;5030926;28;20071;-72
2022/03/28 06:44:25;;;;;;;15.53;6.57;;;;;;;17.46;38.73;102577.94;5031958;28;20420;-72
2022/03/28 06:46:50;;;;;;;17.27;7.13;;;;;;;17.56;38.80;102585.78;5029697;28;20039;-72
2022/03/28 06:49:16;;;;;;;14.20;6.73;;;;;;;17.77;38.28;102582.84;4997172;28;20048;-72
2022/03/28 06:51:41;;;;;;;13.03;6.33;;;;;;;17.23;39.10;102582.63;5031637;28;20465;-72
2022/03/28 06:54:08;;;;;;;18.17;6.93;;;;;;;17.28;39.09;102583.41;5030923;28;20032;-72
2022/03/28 06:56:35;;;;;;;16.47;5.83;;;;;;;17.04;39.53;102588.06;5032532;28;20035;-72
2022/03/28 06:59:00;;;;;;;16.37;7.53;;;;;;;17.61;38.58;102583.94;5031752;28;20030;-72
2022/03/28 07:01:26;;;;;;;15.60;6.40;;;;;;;17.76;38.62;102578.50;5028973;28;20091;-72
2022/03/28 07:03:52;;;;;;;15.93;6.93;;;;;;;18.21;37.17;102574.41;5031246;28;20095;-72
2022/03/28 07:06:17;;;;;;;17.90;7.07;;;;;;;17.97;37.34;102572.06;5031048;28;20040;-72
2022/03/28 07:08:42;;;;;;;15.47;6.50;;;;;;;17.83;38.28;102570.47;5029992;28;20041;-72
2022/03/28 07:11:08;;;;;;;13.67;6.37;;;;;;;17.85;38.09;102573.97;5032225;28;20026;-72
2022/03/28 07:13:33;;;;;;;10.53;5.77;;;;;;;18.59;36.44;102575.59;5031192;28;20029;-72
2022/03/28 07:15:58;;;;;;;13.80;6.97;;;;;;;18.56;36.91;102580.91;5030310;28;20084;-72
2022/03/28 07:18:24;;;;;;;11.47;5.13;;;;;;;18.48;36.80;102570.47;5030847;28;20080;-72
2022/03/28 07:20:50;;;;;;;17.63;6.13;;;;;;;18.65;36.30;102571.03;5030088;28;20087;-71
2022/03/28 07:23:17;;;;;;;10.17;5.50;;;;;;;17.21;38.43;102574.69;5030030;28;20025;-71
2022/03/28 07:25:43;;;;;;;16.20;6.90;;;;;;;17.80;37.64;102559.03;5031903;28;20469;-71
2022/03/28 07:28:10;;;;;;;13.40;6.40;;;;;;;17.89;37.52;102565.09;5029986;28;20450;-72
2022/03/28 07:30:36;;;;;;;17.77;6.40;;;;;;;17.40;38.43;102564.78;5031596;28;20108;-72
2022/03/28 07:33:02;;;;;;;13.00;5.73;;;;;;;16.90;39.09;102563.56;5030568;28;20018;-71
2022/03/28 07:35:29;;;;;;;16.70;6.13;;;;;;;17.23;38.57;102561.47;5030678;28;20040;-72
2022/03/28 07:37:55;;;;;;;12.40;6.53;;;;;;;18.32;37.38;102561.88;5013606;28;20029;-72
2022/03/28 07:40:21;;;;;;;13.47;6.17;;;;;;;17.82;37.83;102553.72;5030256;28;20401;-72
2022/03/28 07:42:46;;;;;;;14.40;6.13;;;;;;;18.65;36.78;102559.59;5030351;28;20094;-72
2022/03/28 07:45:14;;;;;;;15.47;6.77;;;;;;;19.55;35.04;102552.66;5029796;28;20025;-72
2022/03/28 07:47:40;;;;;;;14.93;7.17;;;;;;;21.01;33.16;102548.41;5031612;28;20473;-72
2022/03/28 07:50:06;;;;;;;12.07;6.23;;;;;;;22.47;31.47;102553.88;5030887;28;20028;-72
2022/03/28 07:52:34;;;;;;;13.03;5.53;;;;;;;23.38;29.80;102541.84;5013550;28;20036;-71
2022/03/28 07:55:00;;;;;;;12.10;4.73;;;;;;;22.83;30.13;102545.56;5030349;28;20021;-72
2022/03/28 07:57:26;;;;;;;15.53;6.20;;;;;;;21.95;31.38;102544.88;5029577;28;20501;-72
2022/03/28 07:59:54;;;;;;;12.55;5.70;;;;;;;24.16;28.83;102543.31;5028788;28;20118;-72
2022/03/28 08:02:20;;;;;;;9.93;4.80;;;;;;;25.52;27.23;102542.84;5030062;28;20025;-72
2022/03/28 08:04:45;;;;;;;12.65;5.63;;;;;;;22.09;30.10;102550.66;5035340;28;20539;-71
2022/03/28 08:07:12;;;;;;;14.15;5.32;;;;;;;23.58;28.29;102549.13;5039093;28;20439;-71
2022/03/28 08:09:39;;;;;;;10.27;5.38;;;;;;;23.15;30.15;102556.91;5029919;28;20029;-72
2022/03/28 08:12:05;;;;;;;11.20;5.43;;;;;;;24.44;27.72;102544.88;5046275;28;20033;-71
2022/03/28 08:14:31;;;;;;;12.48;5.68;;;;;;;26.15;25.14;102549.72;5039522;28;20087;-72
2022/03/28 08:16:57;;;;;;;13.35;5.72;;;;;;;23.61;27.96;102554.34;5035086;28;20029;-71
2022/03/28 08:19:23;;;;;;;10.13;5.50;;;;;;;24.24;28.30;102547.50;5029453;28;20021;-72
2022/03/28 08:21:49;;;;;;;10.93;5.65;;;;;;;23.58;28.45;102541.13;5029763;28;20056;-72
2022/03/28 08:24:14;;;;;;;12.43;5.80;;;;;;;23.99;28.57;102540.47;5030396;28;20104;-72
2022/03/28 08:26:40;;;;;;;12.27;6.07;;;;;;;24.11;27.41;102542.66;5033293;28;20017;-71
2022/03/28 08:29:06;;;;;;;13.25;5.90;;;;;;;23.78;28.46;102535.03;5033941;28;20021;-71
2022/03/28 08:31:32;;;;;;;11.63;5.60;;;;;;;24.11;28.43;102537.31;5029315;28;20033;-71
2022/03/28 08:33:57;;;;;;;13.93;6.00;;;;;;;23.27;29.23;102542.25;5029192;28;20032;-72
2022/03/28 08:36:23;;;;;;;10.93;5.35;;;;;;;24.18;27.88;102538.78;5029524;28;20087;-71
2022/03/28 08:38:48;;;;;;;11.30;5.80;;;;;;;24.39;27.84;102531.69;5031137;28;20436;-71
2022/03/28 08:41:16;;;;;;;14.77;5.75;;;;;;;22.85;29.42;102538.38;5028694;28;20389;-72
2022/03/28 08:43:42;;;;;;;12.57;5.18;;;;;;;22.65;29.97;102527.53;5029546;28;20033;-71
2022/03/28 08:46:09;;;;;;;9.48;5.32;;;;;;;23.99;27.94;102516.44;5028332;28;20448;-71
2022/03/28 08:48:40;;;;;;;17.15;6.10;;;;;;;23.75;29.28;102516.44;5029227;28;20021;-71
2022/03/28 08:51:07;;;;;;;11.63;5.57;;;;;;;24.93;26.99;102520.50;5029188;28;20088;-72
2022/03/28 08:53:32;;;;;;;12.15;5.65;;;;;;;25.37;26.07;102508.78;5030643;28;20029;-72
2022/03/28 08:55:58;;;;;;;11.90;5.55;;;;;;;26.15;25.36;102517.56;5028290;28;20531;-71
2022/03/28 08:58:23;;;;;;;11.90;5.60;;;;;;;26.74;25.15;102509.28;5029298;28;20284;-70
2022/03/28 09:00:48;;;;;;;11.55;4.63;;;;;;;23.99;27.73;102506.63;5030584;28;20049;-70
2022/03/28 09:03:14;;;;;;;11.60;5.82;;;;;;;23.09;29.47;102509.09;5035577;28;20080;-70
2022/03/28 09:05:40;;;;;;;10.88;5.35;;;;;;;23.12;29.21;102509.03;5029322;28;20021;-71
2022/03/28 09:08:08;;;;;;;11.45;5.63;;;;;;;23.37;29.36;102503.66;5027986;28;20473;-69
2022/03/28 09:10:35;;;;;;;10.20;5.72;;;;;;;24.82;26.92;102506.75;5030099;28;20385;-70
2022/03/28 09:13:12;;;;;;;10.77;5.85;;;;;;;23.24;29.16;102512.16;5033083;28;20028;-69
2022/03/28 09:15:55;;;;;;;10.93;5.55;;;;;;;22.41;30.03;102522.13;5034405;28;20559;-70
2022/03/28 09:18:31;;;;;;;10.80;6.05;;;;;;;24.84;26.75;102521.81;5033635;28;20017;-70
2022/03/28 09:21:07;;;;;;;10.35;5.78;;;;;;;26.03;24.90;102521.72;5034029;28;20152;-70
2022/03/28 09:23:37;;;;;;;14.00;6.00;;;;;;;23.95;27.63;102520.16;5033313;28;20137;-69
2022/03/28 09:26:08;;;;;;;12.40;5.72;;;;;;;24.89;27.09;102517.13;5034042;28;20040;-70
2022/03/28 09:28:37;;;;;;;17.75;6.70;;;;;;;25.66;25.97;102499.34;5033186;28;20082;-69
2022/03/28 09:31:18;;;;;;;14.02;6.78;;;;;;;27.07;25.10;102500.38;5032666;28;20049;-70
2022/03/28 09:33:56;;;;;;;12.65;6.28;;;;;;;27.44;24.09;102498.41;5047522;28;20044;-70
2022/03/28 09:36:42;;;;;;;13.95;6.75;;;;;;;27.49;24.16;102496.34;5031424;28;20025;-70
2022/03/28 09:39:10;;;;;;;11.20;5.95;;;;;;;27.46;23.62;102496.47;5034444;28;20017;-70
2022/03/28 09:41:36;;;;;;;14.32;7.50;;;;;;;27.85;23.37;102495.19;5034998;28;20436;-70
2022/03/28 09:44:02;;;;;;;12.60;6.38;;;;;;;28.09;23.48;102497.44;5042263;28;20041;-70
2022/03/28 09:46:29;;;;;;;15.65;6.80;;;;;;;28.50;23.45;102483.34;5033303;28;20029;-70
2022/03/28 09:48:58;;;;;;;12.57;6.32;;;;;;;27.42;24.64;102489.53;5032446;28;20052;-70
2022/03/28 09:51:27;;;;;;;17.75;6.95;;;;;;;28.00;23.21;102487.22;5033570;28;20118;-70
2022/03/28 09:53:53;;;;;;;14.25;6.55;;;;;;;28.45;22.83;102485.44;5033913;28;20030;-70
2022/03/28 09:56:18;;;;;;;11.95;6.80;;;;;;;28.63;22.62;102479.91;5035195;28;20029;-70
2022/03/28 09:59:01;;;;;;;10.70;6.18;;;;;;;27.38;24.15;102472.75;5033984;28;20382;-70
2022/03/28 10:01:29;;;;;;;;;;;;;;;28.37;23.58;102475.16;5040585;28;20029;-70
2022/03/28 10:04:01;;;;;;;10.80;6.22;;;;;;;24.44;27.63;102475.38;5037695;28;19913;-70
2022/03/28 10:06:26;;;;;;;12.27;7.13;;;;;;;27.95;23.84;102473.16;5031720;28;20034;-69
2022/03/28 10:08:52;;;;;;;14.18;7.40;;;;;;;28.27;22.86;102466.78;5032883;28;20048;-70
2022/03/28 10:11:18;;;;;;;14.02;7.43;;;;;;;28.53;23.20;102467.03;5030821;28;20032;-70
2022/03/28 10:13:44;;;;;;;15.20;7.78;;;;;;;27.68;23.58;102469.28;5049617;28;20033;-70
2022/03/28 10:16:09;;;;;;;14.80;7.90;;;;;;;26.95;24.87;102468.84;5036662;28;20026;-70
2022/03/28 10:18:39;;;;;;;15.70;6.95;;;;;;;26.46;25.32;102465.09;5031735;28;20025;-70
2022/03/28 10:21:14;;;;;;;14.75;7.35;;;;;;;26.00;26.24;102449.50;5031193;28;20049;-69
2022/03/28 10:24:04;;;;;;;16.23;7.55;;;;;;;27.22;24.66;102450.38;5032006;28;20033;-69
2022/03/28 10:26:36;;;;;;;13.40;7.35;;;;;;;27.11;25.00;102448.28;5030861;28;20076;-69
2022/03/28 10:29:07;;;;;;;12.95;7.28;;;;;;;28.51;23.80;102442.06;5032850;28;20029;-70
2022/03/28 10:31:34;;;;;;;14.38;8.07;;;;;;;28.85;22.66;102437.31;5034695;28;20036;-70
2022/03/28 10:34:00;;;;;;;18.30;8.77;;;;;;;29.04;23.14;102433.44;5032246;28;20041;-70
2022/03/28 10:36:35;;;;;;;16.30;8.23;;;;;;;28.06;23.87;102435.81;5031718;28;20045;-70
2022/03/28 10:39:33;;;;;;;16.08;8.43;;;;;;;27.82;23.79;102430.91;5030883;28;20524;-70
2022/03/28 10:42:17;;;;;;;18.05;7.68;;;;;;;26.36;26.14;102434.34;5030501;28;20091;-70
2022/03/28 10:44:58;;;;;;;16.13;7.60;;;;;;;28.10;24.28;102431.97;5027368;28;20033;-70
2022/03/28 10:47:59;;;;;;;16.02;8.55;;;;;;;28.52;23.44;102433.03;5026541;28;20067;-70
2022/03/28 10:50:29;;;;;;;14.73;7.43;;;;;;;28.05;23.77;102428.69;4991902;28;20069;-70
2022/03/28 10:53:05;;;;;;;16.48;8.85;;;;;;;28.93;23.37;102421.56;5020443;28;20176;-70
2022/03/28 10:55:37;;;;;;;18.83;8.52;;;;;;;28.43;23.19;102418.31;5011650;28;20120;-70
2022/03/28 10:58:25;;;;;;;17.80;7.50;;;;;;;24.85;27.92;102421.94;5013433;28;20091;-70
2022/03/28 11:01:06;;;;;;;19.00;9.32;;;;;;;26.15;26.49;102415.75;5012869;28;20076;-70
2022/03/28 11:03:55;;;;;;;18.58;8.38;;;;;;;27.10;25.34;102392.88;5016952;28;20036;-70
2022/03/28 11:07:04;;;;;;;16.83;8.57;;;;;;;28.26;24.16;102395.16;5014494;28;20441;-70
2022/03/28 11:09:55;;;;;;;15.43;7.05;;;;;;;26.74;26.04;102396.63;5034950;28;20025;-70
2022/03/28 11:12:40;;;;;;;16.50;8.15;;;;;;;27.84;25.08;102404.78;5052409;28;20049;-70
2022/03/28 11:15:11;;;;;;;15.15;7.38;;;;;;;25.61;27.79;102405.03;5043105;28;20028;-70
2022/03/28 11:17:38;;;;;;;13.93;7.25;;;;;;;26.45;26.56;102401.72;5045020;28;20041;-70